createdAt,value
2017-10-31T00:00:33.403Z,100154.02
2017-10-31T00:03:00.851Z,100156.64
2017-10-31T00:05:28.279Z,100148.44
2017-10-31T00:07:55.739Z,100150.75
2017-10-31T00:10:23.150Z,100138.57
2017-10-31T00:12:50.604Z,100155.22
2017-10-31T00:15:18.006Z,100156.27
2017-10-31T00:17:45.429Z,100160.42
2017-10-31T00:20:12.830Z,100151.84
2017-10-31T00:22:40.274Z,100156.24
2017-10-31T00:25:07.737Z,100147.18
2017-10-31T00:27:35.143Z,100155.02
2017-10-31T00:30:02.574Z,100154.05
2017-10-31T00:32:30.004Z,100152.25
2017-10-31T00:34:57.432Z,100153.89
2017-10-31T00:37:24.825Z,100151.06
2017-10-31T00:39:52.247Z,100149.89
2017-10-31T00:42:19.654Z,100160.55
2017-10-31T00:44:47.088Z,100157.29
2017-10-31T00:47:14.477Z,100155.91
2017-10-31T00:49:41.919Z,100155.02
2017-10-31T00:52:09.300Z,100146.27
2017-10-31T00:54:36.733Z,100143.45
2017-10-31T00:57:04.187Z,100140.43
2017-10-31T00:59:31.579Z,100151.12
2017-10-31T01:01:59.011Z,100146.66
2017-10-31T01:04:26.407Z,100149.43
2017-10-31T01:06:53.880Z,100148.53
2017-10-31T01:09:21.275Z,100136.41
2017-10-31T01:11:48.702Z,100140.88
2017-10-31T01:14:16.092Z,100145.73
2017-10-31T01:16:43.547Z,100138.45
2017-10-31T01:19:10.932Z,100125.63
2017-10-31T01:21:38.359Z,100144.23
2017-10-31T01:24:05.826Z,100136.86
2017-10-31T01:26:33.282Z,100146.00
2017-10-31T01:29:00.684Z,100137.84
2017-10-31T01:31:28.093Z,100139.88
2017-10-31T01:33:55.534Z,100150.34
2017-10-31T01:36:22.921Z,100148.45
2017-10-31T01:38:50.364Z,100154.63
2017-10-31T01:41:17.755Z,100157.59
2017-10-31T01:43:45.195Z,100151.09
2017-10-31T01:46:12.630Z,100146.14
2017-10-31T01:48:40.048Z,100143.05
2017-10-31T01:51:07.468Z,100133.52
2017-10-31T01:53:34.919Z,100131.59
2017-10-31T01:56:02.316Z,100131.73
2017-10-31T01:58:29.751Z,100128.09
2017-10-31T02:00:57.157Z,100124.50
2017-10-31T02:03:24.619Z,100128.50
2017-10-31T02:05:52.012Z,100128.57
2017-10-31T02:08:19.432Z,100126.09
2017-10-31T02:10:46.851Z,100128.57
2017-10-31T02:13:14.327Z,100121.84
2017-10-31T02:15:41.791Z,100118.81
2017-10-31T02:18:09.200Z,100122.86
2017-10-31T02:20:36.635Z,100121.77
2017-10-31T02:23:04.061Z,100117.98
2017-10-31T02:25:31.472Z,100121.98
2017-10-31T02:27:58.887Z,100117.52
2017-10-31T02:30:26.296Z,100118.48
2017-10-31T02:32:53.725Z,100117.56
2017-10-31T02:35:21.115Z,100114.77
2017-10-31T02:37:48.597Z,100112.56
2017-10-31T02:40:16.019Z,100086.52
2017-10-31T02:42:43.432Z,100104.73
2017-10-31T02:45:10.831Z,100109.47
2017-10-31T02:47:38.251Z,100109.88
2017-10-31T02:50:05.660Z,100116.85
2017-10-31T02:52:33.102Z,100112.88
2017-10-31T02:55:00.515Z,100114.13
2017-10-31T02:57:27.965Z,100111.37
2017-10-31T02:59:55.359Z,100103.48
2017-10-31T03:02:22.776Z,100104.33
2017-10-31T03:04:50.208Z,100103.77
2017-10-31T03:07:17.602Z,100106.03
2017-10-31T03:09:45.015Z,100109.13
2017-10-31T03:12:12.414Z,100112.61
2017-10-31T03:14:39.837Z,100113.25
2017-10-31T03:17:07.241Z,100111.73
2017-10-31T03:19:34.658Z,100116.87
2017-10-31T03:22:02.058Z,100116.48
2017-10-31T03:24:29.488Z,100124.49
2017-10-31T03:26:56.912Z,100123.81
2017-10-31T03:29:24.348Z,100125.94
2017-10-31T03:31:51.747Z,100126.51
2017-10-31T03:34:19.180Z,100138.58
2017-10-31T03:36:46.597Z,100119.82
2017-10-31T03:39:13.991Z,100118.05
2017-10-31T03:41:41.429Z,100120.86
2017-10-31T03:44:08.833Z,100121.39
2017-10-31T03:46:36.266Z,100121.73
2017-10-31T03:49:03.667Z,100128.93
2017-10-31T03:51:31.094Z,100132.75
2017-10-31T03:53:58.504Z,100130.70
2017-10-31T03:56:25.916Z,100127.66
2017-10-31T03:58:53.354Z,100128.03
2017-10-31T04:01:20.751Z,100133.28
2017-10-31T04:03:48.183Z,100126.96
2017-10-31T04:06:15.584Z,100115.68
2017-10-31T04:08:43.012Z,100134.78
2017-10-31T04:11:10.419Z,100127.26
2017-10-31T04:13:37.832Z,100119.26
2017-10-31T04:16:05.226Z,100127.80
2017-10-31T04:18:32.657Z,100126.17
2017-10-31T04:21:00.065Z,100134.86
2017-10-31T04:23:27.495Z,100118.29
2017-10-31T04:25:54.884Z,100124.70
2017-10-31T04:28:22.332Z,100123.42
2017-10-31T04:30:49.732Z,100129.81
2017-10-31T04:33:17.139Z,100122.09
2017-10-31T04:35:44.532Z,100121.66
2017-10-31T04:38:11.919Z,100115.41
2017-10-31T04:40:39.348Z,100117.20
2017-10-31T04:43:06.733Z,100117.31
2017-10-31T04:45:34.167Z,100115.58
2017-10-31T04:48:01.588Z,100115.03
2017-10-31T04:50:29.009Z,100107.32
2017-10-31T04:52:56.400Z,100117.48
2017-10-31T04:55:23.832Z,100115.61
2017-10-31T04:57:51.244Z,100108.84
2017-10-31T05:00:18.669Z,100114.78
2017-10-31T05:02:46.119Z,100114.80
2017-10-31T05:05:13.512Z,100116.25
2017-10-31T05:07:40.944Z,100121.60
2017-10-31T05:10:08.336Z,100116.09
2017-10-31T05:12:35.774Z,100116.30
2017-10-31T05:15:03.182Z,100118.81
2017-10-31T05:17:30.637Z,100114.81
2017-10-31T05:19:58.032Z,100119.08
2017-10-31T05:22:25.475Z,100114.41
2017-10-31T05:24:52.917Z,100114.27
2017-10-31T05:27:20.351Z,100111.34
2017-10-31T05:29:47.779Z,100110.27
2017-10-31T05:32:15.179Z,100104.76
2017-10-31T05:34:42.599Z,100106.83
2017-10-31T05:37:09.988Z,100108.13
2017-10-31T05:39:37.412Z,100107.25
2017-10-31T05:42:04.803Z,100107.48
2017-10-31T05:44:32.227Z,100109.33
2017-10-31T05:46:59.614Z,100113.86
2017-10-31T05:49:27.032Z,100113.59
2017-10-31T05:51:54.472Z,100110.22
2017-10-31T05:54:21.885Z,100112.13
2017-10-31T05:56:49.306Z,100117.14
2017-10-31T05:59:16.753Z,100114.73
2017-10-31T06:01:44.177Z,100117.86
2017-10-31T06:04:11.580Z,100120.11
2017-10-31T06:06:39.028Z,100115.63
2017-10-31T06:09:06.420Z,100116.59
2017-10-31T06:11:33.858Z,100120.11
2017-10-31T06:14:01.251Z,100121.20
2017-10-31T06:16:28.670Z,100117.48
2017-10-31T06:18:56.082Z,100116.57
2017-10-31T06:21:23.510Z,100115.59
2017-10-31T06:23:56.482Z,100117.19
2017-10-31T06:26:29.465Z,100127.59
2017-10-31T06:29:02.407Z,100125.52
2017-10-31T06:31:35.352Z,100130.54
2017-10-31T06:34:02.764Z,100124.86
2017-10-31T06:36:30.201Z,100130.37
2017-10-31T06:38:57.629Z,100130.83
2017-10-31T06:41:25.055Z,100139.30
2017-10-31T06:43:52.496Z,100147.75
2017-10-31T06:46:19.886Z,100124.87
2017-10-31T06:48:47.299Z,100159.07
2017-10-31T06:51:14.697Z,100150.42
2017-10-31T06:53:42.151Z,100137.73
2017-10-31T06:56:09.564Z,100158.89
2017-10-31T06:58:36.980Z,100160.23
2017-10-31T07:01:04.391Z,100163.42
2017-10-31T07:03:31.774Z,100161.74
2017-10-31T07:05:59.191Z,100162.79
2017-10-31T07:08:26.578Z,100160.81
2017-10-31T07:10:54.176Z,100165.27
2017-10-31T07:13:21.559Z,100173.84
2017-10-31T07:15:48.987Z,100171.39
2017-10-31T07:18:16.415Z,100176.10
2017-10-31T07:20:43.832Z,100167.59
2017-10-31T07:23:11.254Z,100172.34
2017-10-31T07:25:38.660Z,100177.53
2017-10-31T07:28:06.080Z,100176.09
2017-10-31T07:30:33.503Z,100180.03
2017-10-31T07:33:00.952Z,100177.69
2017-10-31T07:35:28.344Z,100176.40
2017-10-31T07:37:55.771Z,100170.35
2017-10-31T07:40:23.168Z,100181.15
2017-10-31T07:42:50.601Z,100172.39
2017-10-31T07:45:17.993Z,100177.69
2017-10-31T07:47:45.418Z,100175.86
2017-10-31T07:50:12.823Z,100173.84
2017-10-31T07:52:40.204Z,100172.11
2017-10-31T07:55:07.694Z,100174.95
2017-10-31T07:57:35.080Z,100176.67
2017-10-31T08:00:02.521Z,100174.39
2017-10-31T08:02:29.922Z,100170.75
2017-10-31T08:04:57.333Z,100171.98
2017-10-31T08:07:24.728Z,100170.06
2017-10-31T08:09:52.232Z,100163.59
2017-10-31T08:12:19.640Z,100157.06
2017-10-31T08:14:47.290Z,100154.80
2017-10-31T08:17:14.711Z,100155.26
2017-10-31T08:19:42.168Z,100152.85
2017-10-31T08:22:09.586Z,100152.72
2017-10-31T08:24:37.019Z,100154.56
2017-10-31T08:27:04.540Z,100161.88
2017-10-31T08:29:31.940Z,100154.77
2017-10-31T08:31:59.409Z,100163.09
2017-10-31T08:34:26.820Z,100164.91
2017-10-31T08:36:54.239Z,100164.02
2017-10-31T08:39:21.634Z,100165.82
2017-10-31T08:41:49.072Z,100164.09
2017-10-31T08:44:16.474Z,100164.14
2017-10-31T08:46:43.907Z,100158.91
2017-10-31T08:49:11.299Z,100156.90
2017-10-31T08:51:38.735Z,100162.78
2017-10-31T08:54:06.132Z,100157.43
2017-10-31T08:56:33.561Z,100154.90
2017-10-31T08:59:00.979Z,100155.48
2017-10-31T09:01:28.458Z,100157.30
2017-10-31T09:03:55.898Z,100149.74
2017-10-31T09:06:23.295Z,100139.72
2017-10-31T09:08:50.744Z,100125.81
2017-10-31T09:11:18.153Z,100148.15
2017-10-31T09:13:45.581Z,100153.47
2017-10-31T09:16:13.000Z,100150.99
2017-10-31T09:18:40.453Z,100157.08
2017-10-31T09:21:07.839Z,100164.16
2017-10-31T09:23:35.267Z,100159.14
2017-10-31T09:26:02.756Z,100163.80
2017-10-31T09:28:30.150Z,100164.89
2017-10-31T09:30:57.592Z,100170.17
2017-10-31T09:33:25.014Z,100167.16
2017-10-31T09:35:52.433Z,100166.14
2017-10-31T09:38:19.844Z,100170.65
2017-10-31T09:40:47.283Z,100170.34
2017-10-31T09:43:14.680Z,100168.08
2017-10-31T09:45:42.147Z,100166.81
2017-10-31T09:48:09.629Z,100164.52
2017-10-31T09:50:37.037Z,100158.73
2017-10-31T09:53:04.492Z,100158.42
2017-10-31T09:55:31.907Z,100153.38
2017-10-31T09:57:59.376Z,100151.03
2017-10-31T10:00:26.780Z,100137.06
2017-10-31T10:02:54.278Z,100148.48
2017-10-31T10:05:21.718Z,100139.89
2017-10-31T10:07:49.144Z,100140.44
2017-10-31T10:10:16.577Z,100141.52
2017-10-31T10:12:43.990Z,100136.95
2017-10-31T10:15:11.411Z,100134.05
2017-10-31T10:17:38.820Z,100136.09
2017-10-31T10:20:06.272Z,100133.51
2017-10-31T10:22:33.680Z,100135.59
2017-10-31T10:25:01.108Z,100133.09
2017-10-31T10:27:28.513Z,100130.88
2017-10-31T10:29:55.979Z,100128.75
2017-10-31T10:32:23.482Z,100123.48
2017-10-31T10:34:50.905Z,100122.07
2017-10-31T10:37:18.379Z,100119.31
2017-10-31T10:39:45.818Z,100120.58
2017-10-31T10:42:13.297Z,100119.40
2017-10-31T10:44:40.721Z,100117.56
2017-10-31T10:47:08.184Z,100118.74
2017-10-31T10:49:35.663Z,100118.12
2017-10-31T10:52:03.100Z,100110.97
2017-10-31T10:54:30.503Z,100115.23
2017-10-31T10:56:57.995Z,100103.60
2017-10-31T10:59:25.445Z,100097.79
2017-10-31T11:01:52.894Z,100095.14
2017-10-31T11:04:20.374Z,100088.98
2017-10-31T11:06:47.768Z,100080.27
2017-10-31T11:09:15.219Z,100082.59
2017-10-31T11:11:42.765Z,100071.37
2017-10-31T11:14:10.394Z,100062.53
2017-10-31T11:16:37.881Z,100058.44
2017-10-31T11:19:05.334Z,100052.35
2017-10-31T11:21:32.732Z,100057.63
2017-10-31T11:24:00.169Z,100053.86
2017-10-31T11:26:28.943Z,100048.16
2017-10-31T11:28:56.401Z,100045.28
2017-10-31T11:31:23.855Z,100040.53
2017-10-31T11:33:51.281Z,100041.63
2017-10-31T11:36:18.755Z,100039.38
2017-10-31T11:38:46.274Z,100036.14
2017-10-31T11:41:14.038Z,100035.89
2017-10-31T11:43:41.507Z,100037.30
2017-10-31T11:46:08.956Z,100036.22
2017-10-31T11:48:36.434Z,100034.14
2017-10-31T11:51:03.879Z,100033.34
2017-10-31T11:53:31.278Z,100039.81
2017-10-31T11:55:58.773Z,100035.05
2017-10-31T11:58:26.193Z,100036.84
2017-10-31T12:00:53.630Z,100039.67
2017-10-31T12:03:21.098Z,100035.23
2017-10-31T12:05:48.594Z,100040.47
2017-10-31T12:08:16.056Z,100031.36
2017-10-31T12:10:43.461Z,100031.61
2017-10-31T12:13:10.858Z,100021.17
2017-10-31T12:15:38.280Z,100021.68
2017-10-31T12:18:05.732Z,100016.81
2017-10-31T12:20:33.163Z,100014.88
2017-10-31T12:23:00.575Z,100010.10
2017-10-31T12:25:27.998Z,100009.75
2017-10-31T12:27:55.425Z,100006.89
2017-10-31T12:30:22.866Z,100004.04
2017-10-31T12:32:50.334Z,99998.19
2017-10-31T12:35:17.732Z,99998.34
2017-10-31T12:37:45.639Z,99982.47
2017-10-31T12:40:13.085Z,99997.28
2017-10-31T12:42:40.505Z,99988.55
2017-10-31T12:45:07.892Z,99983.34
2017-10-31T12:47:35.392Z,99983.14
2017-10-31T12:50:02.799Z,99985.21
2017-10-31T12:52:30.286Z,99983.89
2017-10-31T12:54:57.721Z,99984.09
2017-10-31T12:57:25.149Z,99973.33
2017-10-31T12:59:52.578Z,99965.06
2017-10-31T13:02:19.979Z,99967.97
2017-10-31T13:04:48.184Z,99966.91
2017-10-31T13:07:15.589Z,99964.03
2017-10-31T13:09:43.976Z,99970.40
2017-10-31T13:12:11.392Z,99969.61
2017-10-31T13:14:38.858Z,99974.23
2017-10-31T13:17:06.630Z,99977.34
2017-10-31T13:19:34.064Z,99973.30
2017-10-31T13:22:01.464Z,99976.02
2017-10-31T13:24:28.891Z,99970.30
2017-10-31T13:26:56.545Z,99949.16
2017-10-31T13:29:24.942Z,99960.59
2017-10-31T13:31:53.465Z,99961.15
2017-10-31T13:34:21.208Z,99957.55
2017-10-31T13:36:48.898Z,99960.95
2017-10-31T13:39:16.601Z,99959.85
2017-10-31T13:41:44.216Z,99956.27
2017-10-31T13:44:11.952Z,99957.61
2017-10-31T13:46:39.628Z,99954.17
2017-10-31T13:49:08.838Z,99951.12
2017-10-31T13:51:36.586Z,99955.87
2017-10-31T13:54:04.035Z,99951.98
2017-10-31T13:56:31.509Z,99949.69
2017-10-31T13:58:58.912Z,99950.61
2017-10-31T14:01:26.593Z,99948.20
2017-10-31T14:03:54.403Z,99951.11
2017-10-31T14:06:22.176Z,99943.97
2017-10-31T14:08:49.909Z,99943.59
2017-10-31T14:11:17.864Z,99945.55
2017-10-31T14:13:45.414Z,99945.52
2017-10-31T14:16:12.882Z,99942.72
2017-10-31T14:18:40.539Z,99942.17
2017-10-31T14:21:08.264Z,99938.89
2017-10-31T14:23:35.687Z,99941.54
2017-10-31T14:26:03.159Z,99937.05
2017-10-31T14:28:30.595Z,99936.91
2017-10-31T14:31:00.729Z,99939.03
2017-10-31T14:33:28.134Z,99932.24
2017-10-31T14:35:55.572Z,99933.31
2017-10-31T14:38:22.973Z,99927.14
2017-10-31T14:40:50.439Z,99930.66
2017-10-31T14:43:17.879Z,99929.92
2017-10-31T14:45:45.377Z,99897.23
2017-10-31T14:48:12.837Z,99932.03
2017-10-31T14:50:40.315Z,99926.00
2017-10-31T14:53:07.709Z,99923.61
2017-10-31T14:55:35.167Z,99922.27
2017-10-31T14:58:02.649Z,99917.63
2017-10-31T15:00:31.280Z,99913.11
2017-10-31T15:02:58.737Z,99913.41
2017-10-31T15:05:26.149Z,99910.66
2017-10-31T15:07:53.615Z,99910.91
2017-10-31T15:10:21.004Z,99907.61
2017-10-31T15:12:48.415Z,99902.81
2017-10-31T15:15:15.814Z,99900.75
2017-10-31T15:17:43.258Z,99893.53
2017-10-31T15:20:10.673Z,99889.54
2017-10-31T15:22:38.616Z,99893.30
2017-10-31T15:25:07.134Z,99885.64
2017-10-31T15:27:34.541Z,99887.40
2017-10-31T15:30:02.001Z,99881.56
2017-10-31T15:32:29.405Z,99874.28
2017-10-31T15:34:56.832Z,99881.53
2017-10-31T15:37:24.292Z,99885.61
2017-10-31T15:39:51.716Z,99881.48
2017-10-31T15:42:19.145Z,99889.58
2017-10-31T15:44:46.608Z,99892.88
2017-10-31T15:47:14.053Z,99883.99
2017-10-31T15:49:41.507Z,99882.11
2017-10-31T15:52:08.994Z,99877.91
2017-10-31T15:54:36.576Z,99883.02
2017-10-31T15:57:04.018Z,99880.56
2017-10-31T15:59:31.465Z,99873.94
2017-10-31T16:01:58.947Z,99879.08
2017-10-31T16:04:26.398Z,99889.13
2017-10-31T16:06:53.920Z,99882.13
2017-10-31T16:09:21.445Z,99881.26
2017-10-31T16:11:48.893Z,99883.52
2017-10-31T16:14:16.323Z,99892.78
2017-10-31T16:16:43.766Z,99891.16
2017-10-31T16:19:11.219Z,99905.50
2017-10-31T16:21:38.668Z,99905.25
2017-10-31T16:24:06.072Z,99910.46
2017-10-31T16:26:33.568Z,99906.69
2017-10-31T16:29:00.956Z,99912.95
2017-10-31T16:31:30.461Z,99909.23
2017-10-31T16:33:57.877Z,99912.53
2017-10-31T16:36:25.355Z,99916.66
2017-10-31T16:38:52.831Z,99873.07
2017-10-31T16:41:20.233Z,99917.37
2017-10-31T16:43:47.692Z,99918.59
2017-10-31T16:46:15.120Z,99905.12
2017-10-31T16:48:42.579Z,99908.69
2017-10-31T16:51:09.988Z,99875.20
2017-10-31T16:53:37.464Z,99916.23
2017-10-31T16:56:04.885Z,99908.55
2017-10-31T16:58:32.305Z,99919.35
2017-10-31T17:00:59.737Z,99927.80
2017-10-31T17:03:27.120Z,99932.58
2017-10-31T17:05:54.568Z,99922.33
2017-10-31T17:08:21.981Z,99931.17
2017-10-31T17:10:49.419Z,99930.14
2017-10-31T17:13:16.840Z,99921.42
2017-10-31T17:15:44.284Z,99931.23
2017-10-31T17:18:11.678Z,99930.07
2017-10-31T17:20:39.084Z,99933.70
2017-10-31T17:23:06.566Z,99929.36
2017-10-31T17:25:34.005Z,99915.55
2017-10-31T17:28:01.418Z,99931.91
2017-10-31T17:30:28.829Z,99928.70
2017-10-31T17:32:56.268Z,99936.03
2017-10-31T17:35:23.711Z,99938.50
2017-10-31T17:37:51.188Z,99946.38
2017-10-31T17:40:18.611Z,99943.60
2017-10-31T17:42:46.029Z,99945.05
2017-10-31T17:45:13.501Z,99943.33
2017-10-31T17:47:40.915Z,99949.52
2017-10-31T17:50:08.389Z,99935.45
2017-10-31T17:52:35.920Z,99939.67
2017-10-31T17:55:03.380Z,99948.06
2017-10-31T17:57:30.784Z,99939.92
2017-10-31T17:59:58.243Z,99935.36
2017-10-31T18:02:25.702Z,99920.62
2017-10-31T18:04:53.152Z,99914.02
2017-10-31T18:07:20.563Z,99919.52
2017-10-31T18:09:47.976Z,99908.06
2017-10-31T18:12:15.414Z,99905.84
2017-10-31T18:14:42.806Z,99916.47
2017-10-31T18:17:10.240Z,99917.38
2017-10-31T18:19:37.639Z,99922.52
2017-10-31T18:22:05.145Z,99930.99
2017-10-31T18:24:32.581Z,99936.73
2017-10-31T18:26:59.998Z,99942.72
2017-10-31T18:29:27.401Z,99935.22
2017-10-31T18:31:54.847Z,99942.28
2017-10-31T18:34:22.306Z,99943.88
2017-10-31T18:36:49.739Z,99939.17
2017-10-31T18:39:17.195Z,99939.51
2017-10-31T18:41:44.591Z,99934.04
2017-10-31T18:44:12.072Z,99930.97
2017-10-31T18:46:39.485Z,99941.98
2017-10-31T18:49:06.914Z,99938.36
2017-10-31T18:51:34.325Z,99929.31
2017-10-31T18:54:01.777Z,99935.13
2017-10-31T18:56:29.254Z,99928.36
2017-10-31T18:58:56.720Z,99928.16
2017-10-31T19:01:24.157Z,99927.08
2017-10-31T19:03:51.588Z,99924.48
2017-10-31T19:06:19.005Z,99923.47
2017-10-31T19:08:47.151Z,99924.52
2017-10-31T19:11:14.614Z,99919.38
2017-10-31T19:13:42.043Z,99923.09
2017-10-31T19:16:09.498Z,99921.77
2017-10-31T19:18:37.296Z,99923.36
2017-10-31T19:21:04.756Z,99923.53
2017-10-31T19:23:32.227Z,99922.92
2017-10-31T19:25:59.668Z,99922.89
2017-10-31T19:28:27.080Z,99923.27
2017-10-31T19:30:54.500Z,99920.39
2017-10-31T19:33:21.919Z,99921.77
2017-10-31T19:35:49.365Z,99918.73
2017-10-31T19:38:16.771Z,99915.59
2017-10-31T19:40:44.224Z,99920.70
2017-10-31T19:43:11.645Z,99904.88
2017-10-31T19:45:39.055Z,99918.97
2017-10-31T19:48:07.380Z,99921.53
2017-10-31T19:50:34.809Z,99912.21
2017-10-31T19:53:02.282Z,99915.77
2017-10-31T19:55:30.004Z,99914.52
2017-10-31T19:57:57.434Z,99916.67
2017-10-31T20:00:24.876Z,99911.16
2017-10-31T20:02:52.309Z,99913.80
2017-10-31T20:05:19.695Z,99914.20
2017-10-31T20:07:47.133Z,99908.77
2017-10-31T20:10:14.577Z,99900.13
2017-10-31T20:12:42.485Z,99914.78
2017-10-31T20:15:10.879Z,99913.60
2017-10-31T20:17:38.264Z,99901.54
2017-10-31T20:20:05.692Z,99915.27
2017-10-31T20:22:33.097Z,99908.57
2017-10-31T20:25:00.512Z,99903.53
2017-10-31T20:27:27.933Z,99905.59
2017-10-31T20:29:55.566Z,99905.26
2017-10-31T20:32:22.981Z,99896.17
2017-10-31T20:34:50.396Z,99894.61
2017-10-31T20:37:17.832Z,99892.55
2017-10-31T20:39:45.227Z,99885.05
2017-10-31T20:42:12.644Z,99889.06
2017-10-31T20:44:40.059Z,99892.44
2017-10-31T20:47:07.472Z,99886.13
2017-10-31T20:49:34.861Z,99893.52
2017-10-31T20:52:02.284Z,99896.23
2017-10-31T20:54:29.762Z,99887.41
2017-10-31T20:56:57.140Z,99888.83
2017-10-31T20:59:24.563Z,99889.58
2017-10-31T21:01:51.980Z,99886.27
2017-10-31T21:04:19.401Z,99879.14
2017-10-31T21:06:46.825Z,99891.02
2017-10-31T21:09:14.277Z,99887.64
2017-10-31T21:11:41.802Z,99891.70
2017-10-31T21:14:09.220Z,99887.94
2017-10-31T21:16:36.640Z,99888.44
2017-10-31T21:19:04.058Z,99878.47
2017-10-31T21:21:31.478Z,99873.03
2017-10-31T21:23:58.960Z,99871.48
2017-10-31T21:26:26.668Z,99871.48
2017-10-31T21:28:54.052Z,99854.67
2017-10-31T21:31:21.477Z,99869.17
2017-10-31T21:33:48.848Z,99863.87
2017-10-31T21:36:16.289Z,99856.92
2017-10-31T21:38:43.673Z,99854.56
2017-10-31T21:41:11.119Z,99858.34
2017-10-31T21:43:38.538Z,99846.32
2017-10-31T21:46:05.977Z,99852.06
2017-10-31T21:48:33.419Z,99851.88
2017-10-31T21:51:00.836Z,99849.48
2017-10-31T21:53:28.247Z,99850.84
2017-10-31T21:55:55.647Z,99856.00
2017-10-31T21:58:23.119Z,99855.02
2017-10-31T22:00:50.538Z,99850.52
2017-10-31T22:03:17.969Z,99856.59
2017-10-31T22:05:45.420Z,99870.31
2017-10-31T22:08:13.448Z,99869.46
2017-10-31T22:10:40.848Z,99875.02
2017-10-31T22:13:08.259Z,99870.15
2017-10-31T22:15:35.686Z,99875.59
2017-10-31T22:18:03.145Z,99868.73
2017-10-31T22:20:30.568Z,99868.38
2017-10-31T22:22:57.993Z,99868.03
2017-10-31T22:25:25.416Z,99873.47
2017-10-31T22:27:52.795Z,99874.04
2017-10-31T22:30:20.225Z,99870.69
2017-10-31T22:32:47.657Z,99840.88
2017-10-31T22:35:15.137Z,99871.63
2017-10-31T22:37:42.567Z,99873.83
2017-10-31T22:40:09.997Z,99870.22
2017-10-31T22:42:37.421Z,99867.58
2017-10-31T22:45:04.847Z,99869.11
2017-10-31T22:47:32.249Z,99871.03
2017-10-31T22:49:59.747Z,99866.73
2017-10-31T22:52:27.224Z,99865.18
2017-10-31T22:54:54.607Z,99858.48
2017-10-31T22:57:22.041Z,99853.95
2017-10-31T22:59:49.444Z,99859.19
2017-10-31T23:02:16.875Z,99863.17
2017-10-31T23:04:44.290Z,99860.53
2017-10-31T23:07:11.715Z,99845.02
2017-10-31T23:09:39.153Z,99844.38
2017-10-31T23:12:06.598Z,99845.98
2017-10-31T23:14:34.042Z,99815.81
2017-10-31T23:17:01.470Z,99853.27
2017-10-31T23:19:28.905Z,99842.42
2017-10-31T23:21:56.310Z,99842.54
2017-10-31T23:24:23.760Z,99841.52
2017-10-31T23:26:51.141Z,99838.02
2017-10-31T23:29:18.613Z,99834.30
2017-10-31T23:31:46.057Z,99838.69
2017-10-31T23:34:13.498Z,99842.86
2017-10-31T23:36:40.953Z,99836.86
2017-10-31T23:39:08.377Z,99834.17
2017-10-31T23:41:35.833Z,99830.08
2017-10-31T23:44:03.828Z,99836.67
2017-10-31T23:46:31.322Z,99841.78
2017-10-31T23:48:58.742Z,99831.13
2017-10-31T23:51:26.168Z,99822.80
2017-10-31T23:53:53.576Z,99826.91
2017-10-31T23:56:21.015Z,99832.12
2017-10-31T23:58:48.469Z,99838.75
